Dizelist — EMVZ — position and weather

sailwx.info

Track history (hours):
 
Tides and Currents Weather Stations Pressure Air Temp Water Temp Dewpoint Dewpoint Depression Visibility Wind Speed Wind Dir Waves Ship Positions

Dizelist

Last reported at 2015-Mar-01 11:14 UTC. Time now 2015-Mar-31 23:58 UTC.
Position N 44°52' E 035°15'.
Warning: this ship's position is 30 days out of date.

Length 24 m; draft 1.8 m.

Type: Tug. MMSI: 272880800.

Date/timePositionNaut miles runAvg speedWind from/ knotsBaromVisibWave heightAir tempDewpointWater temp
2015-Mar-01 11:14N 44°52' E 035°15'3 3.0
2015-Mar-01 10:21N 44°51' E 035°12'3 3.0
2015-Mar-01 09:12N 44°48' E 035°08'3 3.1
2015-Mar-01 08:23N 44°47' E 035°05'3 3.9
2015-Mar-01 07:33N 44°49' E 035°01'1 0.6
2015-Mar-01 06:23N 44°49' E 035°00'0 0.0
2015-Mar-01 05:29N 44°49' E 035°00'0 0.0
2015-Mar-01 04:20N 44°49' E 035°00'0 0.0
2015-Mar-01 02:20N 44°49' E 035°00'0 0.0
2015-Feb-28 23:04N 44°50' E 035°00'2 1.7
2015-Feb-28 22:08N 44°48' E 034°59'2 2.6
2015-Feb-28 21:22N 44°47' E 034°57'2 2.6
2015-Feb-28 20:33N 44°46' E 034°54'3 2.9
2015-Feb-28 19:33N 44°44' E 034°51'3 2.5
2015-Feb-28 18:33N 44°44' E 034°48'2 2.5
2015-Feb-28 17:33N 44°43' E 034°44'3 2.5
2015-Feb-28 16:33N 44°42' E 034°41'3 2.5
2015-Feb-28 15:33N 44°41' E 034°38'3 2.9
2015-Feb-28 14:33N 44°40' E 034°34'3 2.9
2015-Feb-28 13:33N 44°38' E 034°31'3 2.9
2015-Feb-28 12:33N 44°37' E 034°27'3 2.7
2015-Feb-28 11:34N 44°35' E 034°24'2 2.4
2015-Feb-28 10:34N 44°33' E 034°22'2 1.8
2015-Feb-28 09:34N 44°32' E 034°20'2 2.1
2015-Feb-28 08:33N 44°31' E 034°17'2 2.0
2015-Feb-28 07:34N 44°30' E 034°15'2 1.8
2015-Feb-28 06:33N 44°29' E 034°14'2 1.6
2015-Feb-28 05:33N 44°28' E 034°12'2 1.8
2015-Feb-28 04:33N 44°27' E 034°10'2 1.7
2015-Feb-28 03:34N 44°25' E 034°08'33 2.0
2015-Feb-27 11:33N 44°36' E 033°25'4 3.9
2015-Feb-27 10:34N 44°37' E 033°30'4 3.0
2015-Feb-27 09:24N 44°37' E 033°35'  
Track history (hours):
 
Tides and Currents Weather Stations Pressure Air Temp Water Temp Dewpoint Dewpoint Depression Visibility Wind Speed Wind Dir Waves Ship Positions

Dizelist

Last reported at 2015-Mar-01 11:14 UTC. Time now 2015-Mar-31 23:58 UTC.
Position N 44°52' E 035°15'.
Warning: this ship's position is 30 days out of date.

Length 24 m; draft 1.8 m.

Type: Tug. MMSI: 272880800.

Date/timePositionNaut miles runAvg speedWind from/ knotsBaromVisibWave heightAir tempDewpointWater temp
2015-Mar-01 11:14N 44°52' E 035°15'3 3.0
2015-Mar-01 10:21N 44°51' E 035°12'3 3.0
2015-Mar-01 09:12N 44°48' E 035°08'3 3.1
2015-Mar-01 08:23N 44°47' E 035°05'3 3.9
2015-Mar-01 07:33N 44°49' E 035°01'1 0.6
2015-Mar-01 06:23N 44°49' E 035°00'0 0.0
2015-Mar-01 05:29N 44°49' E 035°00'0 0.0
2015-Mar-01 04:20N 44°49' E 035°00'0 0.0
2015-Mar-01 02:20N 44°49' E 035°00'0 0.0
2015-Feb-28 23:04N 44°50' E 035°00'2 1.7
2015-Feb-28 22:08N 44°48' E 034°59'2 2.6
2015-Feb-28 21:22N 44°47' E 034°57'2 2.6
2015-Feb-28 20:33N 44°46' E 034°54'3 2.9
2015-Feb-28 19:33N 44°44' E 034°51'3 2.5
2015-Feb-28 18:33N 44°44' E 034°48'2 2.5
2015-Feb-28 17:33N 44°43' E 034°44'3 2.5
2015-Feb-28 16:33N 44°42' E 034°41'3 2.5
2015-Feb-28 15:33N 44°41' E 034°38'3 2.9
2015-Feb-28 14:33N 44°40' E 034°34'3 2.9
2015-Feb-28 13:33N 44°38' E 034°31'3 2.9
2015-Feb-28 12:33N 44°37' E 034°27'3 2.7
2015-Feb-28 11:34N 44°35' E 034°24'2 2.4
2015-Feb-28 10:34N 44°33' E 034°22'2 1.8
2015-Feb-28 09:34N 44°32' E 034°20'2 2.1
2015-Feb-28 08:33N 44°31' E 034°17'2 2.0
2015-Feb-28 07:34N 44°30' E 034°15'2 1.8
2015-Feb-28 06:33N 44°29' E 034°14'2 1.6
2015-Feb-28 05:33N 44°28' E 034°12'2 1.8
2015-Feb-28 04:33N 44°27' E 034°10'2 1.7
2015-Feb-28 03:34N 44°25' E 034°08'33 2.0
2015-Feb-27 11:33N 44°36' E 033°25'4 3.9
2015-Feb-27 10:34N 44°37' E 033°30'4 3.0
2015-Feb-27 09:24N 44°37' E 033°35'  

Dump ship's entire track history